Poringland, United Kingdom
Current Conditions -  °F | °C
As of 9:20 AM on Thursday 27 Nov 2014 (Local Time) from EGSH Reporting Station
Scattered Clouds Scattered Clouds  
Wind Chill: 52°   Ceiling: Unl
Heat Index: 52°   Visibility: 4mi
Dew Point: 52°   Wind: 5mph
Humidity: 100%   Direction: 140°SE
Pressure: 29.65"   Gusts: NA
Location:  52.57°N, 1.35°E
Report Text: EGSH 270920Z 14004KT 110V190 6000 FEW005 SCT040 11/11 Q1004
Loading
Personal Weather Stations






























Interactive Weather Map New forecast layout! Learn more

10-Day Weather Forecast

Advertisements
Track Severe Weather on mobile